sensor_id;sensor_type;location;lat;lon;timestamp;P1;durP1;ratioP1;P2;durP2;ratioP2
70126;SDS011;57491;42.694;23.314;2023-11-18T00:02:16;0.98;;;0.93;;
70126;SDS011;57491;42.694;23.314;2023-11-18T00:04:43;0.95;;;0.70;;
70126;SDS011;57491;42.694;23.314;2023-11-18T00:07:10;0.80;;;0.70;;
70126;SDS011;57491;42.694;23.314;2023-11-18T00:09:39;0.53;;;0.53;;
70126;SDS011;57491;42.694;23.314;2023-11-18T00:12:06;1.27;;;0.75;;
70126;SDS011;57491;42.694;23.314;2023-11-18T00:14:33;1.05;;;0.85;;
70126;SDS011;57491;42.694;23.314;2023-11-18T00:17:01;1.03;;;0.90;;
70126;SDS011;57491;42.694;23.314;2023-11-18T00:19:28;1.38;;;1.27;;
70126;SDS011;57491;42.694;23.314;2023-11-18T00:21:55;0.83;;;0.70;;
70126;SDS011;57491;42.694;23.314;2023-11-18T00:24:22;1.10;;;0.80;;
70126;SDS011;57491;42.694;23.314;2023-11-18T00:26:51;1.25;;;0.80;;
70126;SDS011;57491;42.694;23.314;2023-11-18T00:29:19;0.80;;;0.80;;
70126;SDS011;57491;42.694;23.314;2023-11-18T00:31:46;1.00;;;0.80;;
70126;SDS011;57491;42.694;23.314;2023-11-18T00:34:13;1.58;;;0.73;;
70126;SDS011;57491;42.694;23.314;2023-11-18T00:36:40;1.13;;;0.93;;
70126;SDS011;57491;42.694;23.314;2023-11-18T00:39:07;0.90;;;0.80;;
70126;SDS011;57491;42.694;23.314;2023-11-18T00:41:34;0.97;;;0.93;;
70126;SDS011;57491;42.694;23.314;2023-11-18T00:44:03;1.33;;;0.80;;
70126;SDS011;57491;42.694;23.314;2023-11-18T00:46:32;1.00;;;0.85;;
70126;SDS011;57491;42.694;23.314;2023-11-18T00:49:02;1.00;;;0.90;;
70126;SDS011;57491;42.694;23.314;2023-11-18T00:51:30;0.98;;;0.90;;
70126;SDS011;57491;42.694;23.314;2023-11-18T00:53:57;0.70;;;0.70;;
70126;SDS011;57491;42.694;23.314;2023-11-18T00:56:26;1.10;;;0.88;;
70126;SDS011;57491;42.694;23.314;2023-11-18T01:01:23;1.08;;;0.95;;
70126;SDS011;57491;42.694;23.314;2023-11-18T01:03:50;1.10;;;1.00;;
70126;SDS011;57491;42.694;23.314;2023-11-18T01:06:19;1.42;;;1.33;;
70126;SDS011;57491;42.694;23.314;2023-11-18T01:08:47;1.88;;;1.00;;
70126;SDS011;57491;42.694;23.314;2023-11-18T01:11:15;1.30;;;1.20;;
70126;SDS011;57491;42.694;23.314;2023-11-18T01:13:44;1.13;;;1.00;;
70126;SDS011;57491;42.694;23.314;2023-11-18T01:16:11;1.10;;;1.00;;
70126;SDS011;57491;42.694;23.314;2023-11-18T01:18:40;1.63;;;1.30;;
70126;SDS011;57491;42.694;23.314;2023-11-18T01:21:08;1.10;;;1.00;;
70126;SDS011;57491;42.694;23.314;2023-11-18T01:23:35;2.63;;;1.38;;
70126;SDS011;57491;42.694;23.314;2023-11-18T01:26:02;1.00;;;1.00;;
70126;SDS011;57491;42.694;23.314;2023-11-18T01:28:31;1.67;;;1.52;;
70126;SDS011;57491;42.694;23.314;2023-11-18T01:31:02;1.63;;;1.50;;
70126;SDS011;57491;42.694;23.314;2023-11-18T01:33:29;1.60;;;1.48;;
70126;SDS011;57491;42.694;23.314;2023-11-18T01:35:59;1.25;;;1.17;;
70126;SDS011;57491;42.694;23.314;2023-11-18T01:38:26;1.40;;;1.30;;
70126;SDS011;57491;42.694;23.314;2023-11-18T01:40:53;3.30;;;1.90;;
70126;SDS011;57491;42.694;23.314;2023-11-18T01:43:20;1.50;;;1.37;;
70126;SDS011;57491;42.694;23.314;2023-11-18T01:45:48;1.85;;;1.38;;
70126;SDS011;57491;42.694;23.314;2023-11-18T01:48:15;1.60;;;1.30;;
70126;SDS011;57491;42.694;23.314;2023-11-18T01:50:42;1.38;;;1.27;;
70126;SDS011;57491;42.694;23.314;2023-11-18T01:53:14;1.40;;;1.30;;
70126;SDS011;57491;42.694;23.314;2023-11-18T01:55:41;1.30;;;1.20;;
70126;SDS011;57491;42.694;23.314;2023-11-18T01:58:09;1.30;;;1.10;;
70126;SDS011;57491;42.694;23.314;2023-11-18T02:00:36;2.70;;;1.30;;
70126;SDS011;57491;42.694;23.314;2023-11-18T02:03:07;1.30;;;1.20;;
70126;SDS011;57491;42.694;23.314;2023-11-18T02:05:34;2.47;;;1.70;;
70126;SDS011;57491;42.694;23.314;2023-11-18T02:08:04;1.25;;;1.15;;
70126;SDS011;57491;42.694;23.314;2023-11-18T02:10:34;2.38;;;1.42;;
70126;SDS011;57491;42.694;23.314;2023-11-18T02:13:04;4.78;;;1.88;;
70126;SDS011;57491;42.694;23.314;2023-11-18T02:15:38;1.80;;;1.70;;
70126;SDS011;57491;42.694;23.314;2023-11-18T02:18:06;1.30;;;1.20;;
70126;SDS011;57491;42.694;23.314;2023-11-18T02:20:36;1.85;;;1.60;;
70126;SDS011;57491;42.694;23.314;2023-11-18T02:23:04;1.60;;;1.50;;
70126;SDS011;57491;42.694;23.314;2023-11-18T02:25:34;1.67;;;1.58;;
70126;SDS011;57491;42.694;23.314;2023-11-18T02:28:11;4.25;;;1.90;;
70126;SDS011;57491;42.694;23.314;2023-11-18T02:30:38;1.87;;;1.73;;
70126;SDS011;57491;42.694;23.314;2023-11-18T02:35:41;1.77;;;1.60;;
70126;SDS011;57491;42.694;23.314;2023-11-18T02:38:15;2.15;;;1.77;;
70126;SDS011;57491;42.694;23.314;2023-11-18T02:40:52;2.42;;;2.22;;
70126;SDS011;57491;42.694;23.314;2023-11-18T02:43:24;2.20;;;2.00;;
70126;SDS011;57491;42.694;23.314;2023-11-18T02:45:54;2.75;;;2.25;;
70126;SDS011;57491;42.694;23.314;2023-11-18T02:48:23;2.67;;;2.20;;
70126;SDS011;57491;42.694;23.314;2023-11-18T02:50:54;3.05;;;2.38;;
70126;SDS011;57491;42.694;23.314;2023-11-18T02:53:21;2.42;;;2.10;;
70126;SDS011;57491;42.694;23.314;2023-11-18T02:55:48;2.80;;;2.13;;
70126;SDS011;57491;42.694;23.314;2023-11-18T02:58:19;3.15;;;2.40;;
70126;SDS011;57491;42.694;23.314;2023-11-18T03:00:47;2.30;;;2.10;;
70126;SDS011;57491;42.694;23.314;2023-11-18T03:03:14;3.90;;;2.67;;
70126;SDS011;57491;42.694;23.314;2023-11-18T03:05:42;2.90;;;2.60;;
70126;SDS011;57491;42.694;23.314;2023-11-18T03:08:11;3.00;;;2.65;;
70126;SDS011;57491;42.694;23.314;2023-11-18T03:10:39;2.92;;;2.40;;
70126;SDS011;57491;42.694;23.314;2023-11-18T03:13:09;3.63;;;3.08;;
70126;SDS011;57491;42.694;23.314;2023-11-18T03:18:05;2.72;;;2.25;;
70126;SDS011;57491;42.694;23.314;2023-11-18T03:20:33;2.83;;;2.43;;
70126;SDS011;57491;42.694;23.314;2023-11-18T03:23:00;2.60;;;2.33;;
70126;SDS011;57491;42.694;23.314;2023-11-18T03:25:27;3.10;;;2.83;;
70126;SDS011;57491;42.694;23.314;2023-11-18T03:27:54;2.67;;;2.43;;
70126;SDS011;57491;42.694;23.314;2023-11-18T03:30:21;2.90;;;2.40;;
70126;SDS011;57491;42.694;23.314;2023-11-18T03:32:50;2.50;;;2.30;;
70126;SDS011;57491;42.694;23.314;2023-11-18T03:35:17;2.67;;;2.22;;
70126;SDS011;57491;42.694;23.314;2023-11-18T03:37:45;4.28;;;2.63;;
70126;SDS011;57491;42.694;23.314;2023-11-18T03:40:12;4.88;;;2.70;;
70126;SDS011;57491;42.694;23.314;2023-11-18T03:42:41;3.25;;;2.95;;
70126;SDS011;57491;42.694;23.314;2023-11-18T03:45:09;3.00;;;2.40;;
70126;SDS011;57491;42.694;23.314;2023-11-18T03:47:35;2.58;;;2.10;;
70126;SDS011;57491;42.694;23.314;2023-11-18T03:50:04;2.80;;;2.60;;
70126;SDS011;57491;42.694;23.314;2023-11-18T03:52:34;3.10;;;2.55;;
70126;SDS011;57491;42.694;23.314;2023-11-18T03:55:03;2.53;;;2.28;;
70126;SDS011;57491;42.694;23.314;2023-11-18T03:57:31;3.17;;;2.70;;
70126;SDS011;57491;42.694;23.314;2023-11-18T03:59:58;3.50;;;2.60;;
70126;SDS011;57491;42.694;23.314;2023-11-18T04:02:25;3.30;;;2.45;;
70126;SDS011;57491;42.694;23.314;2023-11-18T04:04:54;3.42;;;2.63;;
70126;SDS011;57491;42.694;23.314;2023-11-18T04:07:23;3.47;;;2.80;;
70126;SDS011;57491;42.694;23.314;2023-11-18T04:09:50;2.88;;;2.33;;
70126;SDS011;57491;42.694;23.314;2023-11-18T04:12:17;3.03;;;2.67;;
70126;SDS011;57491;42.694;23.314;2023-11-18T04:14:44;3.77;;;3.23;;
70126;SDS011;57491;42.694;23.314;2023-11-18T04:17:11;3.63;;;2.77;;
70126;SDS011;57491;42.694;23.314;2023-11-18T04:19:39;2.90;;;2.60;;
70126;SDS011;57491;42.694;23.314;2023-11-18T04:22:06;2.85;;;2.55;;
70126;SDS011;57491;42.694;23.314;2023-11-18T04:24:36;3.35;;;3.05;;
70126;SDS011;57491;42.694;23.314;2023-11-18T04:27:03;3.78;;;3.15;;
70126;SDS011;57491;42.694;23.314;2023-11-18T04:29:30;3.20;;;2.90;;
70126;SDS011;57491;42.694;23.314;2023-11-18T04:31:57;5.03;;;3.00;;
70126;SDS011;57491;42.694;23.314;2023-11-18T04:34:25;3.20;;;2.63;;
70126;SDS011;57491;42.694;23.314;2023-11-18T04:36:52;3.50;;;2.30;;
70126;SDS011;57491;42.694;23.314;2023-11-18T04:39:21;2.65;;;2.40;;
70126;SDS011;57491;42.694;23.314;2023-11-18T04:41:49;2.70;;;2.30;;
70126;SDS011;57491;42.694;23.314;2023-11-18T04:44:17;5.00;;;2.75;;
70126;SDS011;57491;42.694;23.314;2023-11-18T04:46:45;3.00;;;2.80;;
70126;SDS011;57491;42.694;23.314;2023-11-18T04:49:12;5.30;;;3.15;;
70126;SDS011;57491;42.694;23.314;2023-11-18T04:51:39;2.53;;;2.30;;
70126;SDS011;57491;42.694;23.314;2023-11-18T04:54:07;4.00;;;2.50;;
70126;SDS011;57491;42.694;23.314;2023-11-18T04:56:34;3.75;;;2.38;;
70126;SDS011;57491;42.694;23.314;2023-11-18T04:59:03;3.20;;;1.95;;
70126;SDS011;57491;42.694;23.314;2023-11-18T05:01:31;2.75;;;1.92;;
70126;SDS011;57491;42.694;23.314;2023-11-18T05:03:58;3.13;;;2.47;;
70126;SDS011;57491;42.694;23.314;2023-11-18T05:08:53;3.38;;;2.70;;
70126;SDS011;57491;42.694;23.314;2023-11-18T05:11:20;2.10;;;1.80;;
70126;SDS011;57491;42.694;23.314;2023-11-18T05:13:47;3.20;;;2.20;;
70126;SDS011;57491;42.694;23.314;2023-11-18T05:16:16;2.22;;;2.03;;
70126;SDS011;57491;42.694;23.314;2023-11-18T05:18:43;3.25;;;2.50;;
70126;SDS011;57491;42.694;23.314;2023-11-18T05:21:10;3.70;;;2.33;;
70126;SDS011;57491;42.694;23.314;2023-11-18T05:23:47;3.70;;;2.30;;
70126;SDS011;57491;42.694;23.314;2023-11-18T05:26:14;2.95;;;2.50;;
70126;SDS011;57491;42.694;23.314;2023-11-18T05:28:42;2.67;;;2.08;;
70126;SDS011;57491;42.694;23.314;2023-11-18T05:31:10;4.30;;;2.45;;
70126;SDS011;57491;42.694;23.314;2023-11-18T05:34:00;2.40;;;2.20;;
70126;SDS011;57491;42.694;23.314;2023-11-18T05:36:28;1.83;;;1.40;;
70126;SDS011;57491;42.694;23.314;2023-11-18T05:39:15;6.38;;;1.75;;
70126;SDS011;57491;42.694;23.314;2023-11-18T05:41:41;1.67;;;1.50;;
70126;SDS011;57491;42.694;23.314;2023-11-18T05:44:11;1.73;;;1.40;;
70126;SDS011;57491;42.694;23.314;2023-11-18T05:46:42;3.33;;;1.88;;
70126;SDS011;57491;42.694;23.314;2023-11-18T05:49:13;1.75;;;1.55;;
70126;SDS011;57491;42.694;23.314;2023-11-18T05:51:45;1.88;;;1.48;;
70126;SDS011;57491;42.694;23.314;2023-11-18T05:54:22;1.85;;;1.50;;
70126;SDS011;57491;42.694;23.314;2023-11-18T05:56:49;2.30;;;1.60;;
70126;SDS011;57491;42.694;23.314;2023-11-18T05:59:16;1.70;;;1.50;;
70126;SDS011;57491;42.694;23.314;2023-11-18T06:01:43;2.10;;;1.73;;
70126;SDS011;57491;42.694;23.314;2023-11-18T06:04:14;1.85;;;1.73;;
70126;SDS011;57491;42.694;23.314;2023-11-18T06:06:42;1.50;;;1.40;;
70126;SDS011;57491;42.694;23.314;2023-11-18T06:09:09;1.98;;;1.20;;
70126;SDS011;57491;42.694;23.314;2023-11-18T06:11:43;2.05;;;1.65;;
70126;SDS011;57491;42.694;23.314;2023-11-18T06:14:10;4.13;;;1.30;;
70126;SDS011;57491;42.694;23.314;2023-11-18T06:16:38;0.57;;;0.55;;
70126;SDS011;57491;42.694;23.314;2023-11-18T06:19:06;1.83;;;1.02;;
70126;SDS011;57491;42.694;23.314;2023-11-18T06:21:34;1.88;;;1.15;;
70126;SDS011;57491;42.694;23.314;2023-11-18T06:24:02;1.52;;;1.40;;
70126;SDS011;57491;42.694;23.314;2023-11-18T06:26:31;2.03;;;1.42;;
70126;SDS011;57491;42.694;23.314;2023-11-18T06:29:01;3.05;;;1.60;;
70126;SDS011;57491;42.694;23.314;2023-11-18T06:31:29;3.08;;;1.20;;
70126;SDS011;57491;42.694;23.314;2023-11-18T06:33:56;1.73;;;1.10;;
70126;SDS011;57491;42.694;23.314;2023-11-18T06:36:23;1.73;;;1.35;;
70126;SDS011;57491;42.694;23.314;2023-11-18T06:38:53;1.30;;;1.10;;
70126;SDS011;57491;42.694;23.314;2023-11-18T06:41:22;1.55;;;1.45;;
70126;SDS011;57491;42.694;23.314;2023-11-18T06:43:51;1.35;;;1.08;;
70126;SDS011;57491;42.694;23.314;2023-11-18T06:46:23;1.48;;;1.08;;
70126;SDS011;57491;42.694;23.314;2023-11-18T06:48:52;2.58;;;1.20;;
70126;SDS011;57491;42.694;23.314;2023-11-18T06:51:20;0.90;;;0.80;;
70126;SDS011;57491;42.694;23.314;2023-11-18T06:53:49;0.70;;;0.63;;
70126;SDS011;57491;42.694;23.314;2023-11-18T06:56:18;1.02;;;0.77;;
70126;SDS011;57491;42.694;23.314;2023-11-18T06:58:45;1.35;;;0.85;;
70126;SDS011;57491;42.694;23.314;2023-11-18T07:03:41;1.20;;;0.90;;
70126;SDS011;57491;42.694;23.314;2023-11-18T07:06:09;0.65;;;0.55;;
70126;SDS011;57491;42.694;23.314;2023-11-18T07:08:36;1.67;;;0.85;;
70126;SDS011;57491;42.694;23.314;2023-11-18T07:13:33;1.70;;;1.00;;
70126;SDS011;57491;42.694;23.314;2023-11-18T07:16:00;1.77;;;1.00;;
70126;SDS011;57491;42.694;23.314;2023-11-18T07:18:29;2.30;;;1.08;;
70126;SDS011;57491;42.694;23.314;2023-11-18T07:20:58;1.23;;;0.90;;
70126;SDS011;57491;42.694;23.314;2023-11-18T07:23:25;1.65;;;0.88;;
70126;SDS011;57491;42.694;23.314;2023-11-18T07:25:53;1.13;;;0.98;;
70126;SDS011;57491;42.694;23.314;2023-11-18T07:28:21;1.05;;;0.75;;
70126;SDS011;57491;42.694;23.314;2023-11-18T07:30:50;1.98;;;1.00;;
70126;SDS011;57491;42.694;23.314;2023-11-18T07:33:18;1.27;;;0.93;;
70126;SDS011;57491;42.694;23.314;2023-11-18T07:35:45;1.63;;;1.10;;
70126;SDS011;57491;42.694;23.314;2023-11-18T07:38:13;1.80;;;1.17;;
70126;SDS011;57491;42.694;23.314;2023-11-18T07:40:41;0.93;;;0.82;;
70126;SDS011;57491;42.694;23.314;2023-11-18T07:43:11;1.52;;;0.90;;
70126;SDS011;57491;42.694;23.314;2023-11-18T07:45:38;0.93;;;0.93;;
70126;SDS011;57491;42.694;23.314;2023-11-18T07:48:09;1.63;;;0.90;;
70126;SDS011;57491;42.694;23.314;2023-11-18T07:50:37;1.58;;;1.45;;
70126;SDS011;57491;42.694;23.314;2023-11-18T07:53:06;2.67;;;1.33;;
70126;SDS011;57491;42.694;23.314;2023-11-18T07:55:35;0.88;;;0.77;;
70126;SDS011;57491;42.694;23.314;2023-11-18T07:58:05;1.20;;;1.10;;
70126;SDS011;57491;42.694;23.314;2023-11-18T08:00:36;1.23;;;1.10;;
70126;SDS011;57491;42.694;23.314;2023-11-18T08:03:04;1.38;;;1.17;;
70126;SDS011;57491;42.694;23.314;2023-11-18T08:05:36;1.35;;;1.17;;
70126;SDS011;57491;42.694;23.314;2023-11-18T08:08:05;1.45;;;1.00;;
70126;SDS011;57491;42.694;23.314;2023-11-18T08:10:32;1.83;;;1.20;;
70126;SDS011;57491;42.694;23.314;2023-11-18T08:13:03;1.42;;;1.17;;
70126;SDS011;57491;42.694;23.314;2023-11-18T08:15:32;1.58;;;1.00;;
70126;SDS011;57491;42.694;23.314;2023-11-18T08:17:59;2.20;;;1.30;;
70126;SDS011;57491;42.694;23.314;2023-11-18T08:20:27;1.48;;;1.20;;
70126;SDS011;57491;42.694;23.314;2023-11-18T08:22:55;1.10;;;0.90;;
70126;SDS011;57491;42.694;23.314;2023-11-18T08:25:22;1.88;;;1.30;;
70126;SDS011;57491;42.694;23.314;2023-11-18T08:27:51;1.60;;;1.05;;
70126;SDS011;57491;42.694;23.314;2023-11-18T08:30:18;1.30;;;1.10;;
70126;SDS011;57491;42.694;23.314;2023-11-18T08:32:46;1.58;;;1.00;;
70126;SDS011;57491;42.694;23.314;2023-11-18T08:35:14;2.90;;;1.23;;
70126;SDS011;57491;42.694;23.314;2023-11-18T08:37:42;1.33;;;1.20;;
70126;SDS011;57491;42.694;23.314;2023-11-18T08:42:41;1.65;;;1.20;;
70126;SDS011;57491;42.694;23.314;2023-11-18T08:45:14;1.38;;;1.27;;
70126;SDS011;57491;42.694;23.314;2023-11-18T08:47:44;1.23;;;0.85;;
70126;SDS011;57491;42.694;23.314;2023-11-18T08:52:39;4.38;;;1.27;;
70126;SDS011;57491;42.694;23.314;2023-11-18T08:55:10;2.85;;;1.55;;
70126;SDS011;57491;42.694;23.314;2023-11-18T08:57:45;1.60;;;0.93;;
70126;SDS011;57491;42.694;23.314;2023-11-18T09:00:24;1.20;;;1.10;;
70126;SDS011;57491;42.694;23.314;2023-11-18T09:03:13;4.68;;;1.52;;
70126;SDS011;57491;42.694;23.314;2023-11-18T09:05:50;2.72;;;1.60;;
70126;SDS011;57491;42.694;23.314;2023-11-18T09:08:23;1.55;;;1.33;;
70126;SDS011;57491;42.694;23.314;2023-11-18T09:10:54;1.50;;;1.02;;
70126;SDS011;57491;42.694;23.314;2023-11-18T09:13:21;2.58;;;2.17;;
70126;SDS011;57491;42.694;23.314;2023-11-18T09:15:50;1.80;;;1.20;;
70126;SDS011;57491;42.694;23.314;2023-11-18T09:18:18;1.48;;;1.25;;
70126;SDS011;57491;42.694;23.314;2023-11-18T09:20:47;1.75;;;1.60;;
70126;SDS011;57491;42.694;23.314;2023-11-18T09:23:14;0.90;;;0.90;;
70126;SDS011;57491;42.694;23.314;2023-11-18T09:25:42;1.10;;;0.90;;
70126;SDS011;57491;42.694;23.314;2023-11-18T09:28:13;2.60;;;1.20;;
70126;SDS011;57491;42.694;23.314;2023-11-18T09:30:41;4.20;;;1.42;;
70126;SDS011;57491;42.694;23.314;2023-11-18T09:33:16;4.70;;;1.55;;
70126;SDS011;57491;42.694;23.314;2023-11-18T09:35:51;0.70;;;0.70;;
70126;SDS011;57491;42.694;23.314;2023-11-18T09:38:24;3.60;;;1.30;;
70126;SDS011;57491;42.694;23.314;2023-11-18T09:40:54;1.77;;;1.27;;
70126;SDS011;57491;42.694;23.314;2023-11-18T09:45:54;2.63;;;1.15;;
70126;SDS011;57491;42.694;23.314;2023-11-18T09:48:22;1.55;;;1.25;;
70126;SDS011;57491;42.694;23.314;2023-11-18T09:50:52;1.35;;;1.02;;
70126;SDS011;57491;42.694;23.314;2023-11-18T09:55:56;1.85;;;1.40;;
70126;SDS011;57491;42.694;23.314;2023-11-18T09:58:43;2.35;;;1.15;;
70126;SDS011;57491;42.694;23.314;2023-11-18T10:01:18;1.27;;;1.15;;
70126;SDS011;57491;42.694;23.314;2023-11-18T10:03:47;2.40;;;1.58;;
70126;SDS011;57491;42.694;23.314;2023-11-18T10:06:17;2.47;;;1.45;;
70126;SDS011;57491;42.694;23.314;2023-11-18T10:08:47;2.22;;;1.70;;
70126;SDS011;57491;42.694;23.314;2023-11-18T10:11:18;1.40;;;1.15;;
70126;SDS011;57491;42.694;23.314;2023-11-18T10:13:49;2.33;;;1.60;;
70126;SDS011;57491;42.694;23.314;2023-11-18T10:16:17;2.30;;;1.30;;
70126;SDS011;57491;42.694;23.314;2023-11-18T10:18:45;1.40;;;1.23;;
70126;SDS011;57491;42.694;23.314;2023-11-18T10:21:20;1.73;;;1.50;;
70126;SDS011;57491;42.694;23.314;2023-11-18T10:24:05;1.20;;;1.10;;
70126;SDS011;57491;42.694;23.314;2023-11-18T10:26:40;2.95;;;1.25;;
70126;SDS011;57491;42.694;23.314;2023-11-18T10:29:14;1.55;;;1.23;;
70126;SDS011;57491;42.694;23.314;2023-11-18T10:31:46;7.38;;;1.60;;
70126;SDS011;57491;42.694;23.314;2023-11-18T10:34:14;4.80;;;1.67;;
70126;SDS011;57491;42.694;23.314;2023-11-18T10:36:42;1.85;;;1.65;;
70126;SDS011;57491;42.694;23.314;2023-11-18T10:39:32;1.52;;;1.05;;
70126;SDS011;57491;42.694;23.314;2023-11-18T10:42:00;1.33;;;1.23;;
70126;SDS011;57491;42.694;23.314;2023-11-18T10:44:32;2.88;;;1.63;;
70126;SDS011;57491;42.694;23.314;2023-11-18T10:47:01;2.42;;;1.60;;
70126;SDS011;57491;42.694;23.314;2023-11-18T10:49:29;1.40;;;1.30;;
70126;SDS011;57491;42.694;23.314;2023-11-18T10:52:02;1.85;;;1.20;;
70126;SDS011;57491;42.694;23.314;2023-11-18T10:54:34;2.35;;;1.20;;
70126;SDS011;57491;42.694;23.314;2023-11-18T10:57:02;3.00;;;1.48;;
70126;SDS011;57491;42.694;23.314;2023-11-18T10:59:38;1.55;;;1.08;;
70126;SDS011;57491;42.694;23.314;2023-11-18T11:02:25;2.15;;;1.13;;
70126;SDS011;57491;42.694;23.314;2023-11-18T11:05:00;1.42;;;1.33;;
70126;SDS011;57491;42.694;23.314;2023-11-18T11:07:28;2.55;;;1.25;;
70126;SDS011;57491;42.694;23.314;2023-11-18T11:09:59;3.25;;;1.10;;
70126;SDS011;57491;42.694;23.314;2023-11-18T11:12:32;2.08;;;1.30;;
70126;SDS011;57491;42.694;23.314;2023-11-18T11:15:07;1.98;;;1.35;;
70126;SDS011;57491;42.694;23.314;2023-11-18T11:17:48;1.27;;;0.88;;
70126;SDS011;57491;42.694;23.314;2023-11-18T11:20:24;3.58;;;1.45;;
70126;SDS011;57491;42.694;23.314;2023-11-18T11:23:05;1.88;;;1.38;;
70126;SDS011;57491;42.694;23.314;2023-11-18T11:25:41;1.05;;;0.93;;
70126;SDS011;57491;42.694;23.314;2023-11-18T11:28:16;1.30;;;1.13;;
70126;SDS011;57491;42.694;23.314;2023-11-18T11:31:02;1.73;;;1.08;;
70126;SDS011;57491;42.694;23.314;2023-11-18T11:33:46;1.20;;;1.10;;
70126;SDS011;57491;42.694;23.314;2023-11-18T11:36:25;2.60;;;1.40;;
70126;SDS011;57491;42.694;23.314;2023-11-18T11:39:16;2.15;;;1.40;;
70126;SDS011;57491;42.694;23.314;2023-11-18T11:41:51;1.70;;;1.38;;
70126;SDS011;57491;42.694;23.314;2023-11-18T11:44:20;1.52;;;1.17;;
70126;SDS011;57491;42.694;23.314;2023-11-18T11:46:55;2.35;;;1.80;;
70126;SDS011;57491;42.694;23.314;2023-11-18T11:49:26;2.83;;;1.60;;
70126;SDS011;57491;42.694;23.314;2023-11-18T11:52:02;2.80;;;1.80;;
70126;SDS011;57491;42.694;23.314;2023-11-18T11:54:35;3.10;;;1.40;;
70126;SDS011;57491;42.694;23.314;2023-11-18T11:57:06;1.55;;;1.38;;
70126;SDS011;57491;42.694;23.314;2023-11-18T12:02:26;1.60;;;1.48;;
70126;SDS011;57491;42.694;23.314;2023-11-18T12:04:55;2.50;;;1.40;;
70126;SDS011;57491;42.694;23.314;2023-11-18T12:07:25;1.77;;;1.42;;
70126;SDS011;57491;42.694;23.314;2023-11-18T12:09:56;1.95;;;1.60;;
70126;SDS011;57491;42.694;23.314;2023-11-18T12:12:25;2.72;;;1.80;;
70126;SDS011;57491;42.694;23.314;2023-11-18T12:17:24;3.70;;;1.60;;
70126;SDS011;57491;42.694;23.314;2023-11-18T12:20:05;3.78;;;2.53;;
70126;SDS011;57491;42.694;23.314;2023-11-18T12:23:08;2.33;;;1.55;;
70126;SDS011;57491;42.694;23.314;2023-11-18T12:25:40;1.90;;;1.50;;
70126;SDS011;57491;42.694;23.314;2023-11-18T12:30:39;1.38;;;0.95;;
70126;SDS011;57491;42.694;23.314;2023-11-18T12:33:22;2.03;;;1.38;;
70126;SDS011;57491;42.694;23.314;2023-11-18T12:39:01;2.35;;;1.65;;
70126;SDS011;57491;42.694;23.314;2023-11-18T12:42:01;1.42;;;1.33;;
70126;SDS011;57491;42.694;23.314;2023-11-18T12:44:37;1.95;;;1.73;;
70126;SDS011;57491;42.694;23.314;2023-11-18T12:47:13;2.45;;;1.48;;
70126;SDS011;57491;42.694;23.314;2023-11-18T12:49:47;1.98;;;1.45;;
70126;SDS011;57491;42.694;23.314;2023-11-18T12:52:20;3.03;;;1.48;;
70126;SDS011;57491;42.694;23.314;2023-11-18T12:54:48;1.45;;;1.25;;
70126;SDS011;57491;42.694;23.314;2023-11-18T12:57:26;2.97;;;1.60;;
70126;SDS011;57491;42.694;23.314;2023-11-18T12:59:57;2.80;;;2.00;;
70126;SDS011;57491;42.694;23.314;2023-11-18T13:02:38;1.38;;;1.27;;
70126;SDS011;57491;42.694;23.314;2023-11-18T13:05:08;1.80;;;1.70;;
70126;SDS011;57491;42.694;23.314;2023-11-18T13:07:35;2.13;;;1.92;;
70126;SDS011;57491;42.694;23.314;2023-11-18T13:10:03;3.30;;;1.90;;
70126;SDS011;57491;42.694;23.314;2023-11-18T13:12:31;2.55;;;1.85;;
70126;SDS011;57491;42.694;23.314;2023-11-18T13:14:59;5.25;;;1.70;;
70126;SDS011;57491;42.694;23.314;2023-11-18T13:17:28;2.50;;;1.85;;
70126;SDS011;57491;42.694;23.314;2023-11-18T13:19:55;2.87;;;2.10;;
70126;SDS011;57491;42.694;23.314;2023-11-18T13:24:53;1.85;;;1.48;;
70126;SDS011;57491;42.694;23.314;2023-11-18T13:27:20;2.35;;;1.92;;
70126;SDS011;57491;42.694;23.314;2023-11-18T13:29:48;2.65;;;2.40;;
70126;SDS011;57491;42.694;23.314;2023-11-18T13:32:16;3.55;;;2.92;;
70126;SDS011;57491;42.694;23.314;2023-11-18T13:34:48;3.15;;;2.17;;
70126;SDS011;57491;42.694;23.314;2023-11-18T13:37:17;2.95;;;2.35;;
70126;SDS011;57491;42.694;23.314;2023-11-18T13:39:54;2.88;;;2.20;;
70126;SDS011;57491;42.694;23.314;2023-11-18T13:42:22;3.03;;;2.53;;
70126;SDS011;57491;42.694;23.314;2023-11-18T13:44:51;2.78;;;2.40;;
70126;SDS011;57491;42.694;23.314;2023-11-18T13:47:19;2.85;;;2.15;;
70126;SDS011;57491;42.694;23.314;2023-11-18T13:49:49;2.92;;;2.00;;
70126;SDS011;57491;42.694;23.314;2023-11-18T13:52:17;2.75;;;2.10;;
70126;SDS011;57491;42.694;23.314;2023-11-18T13:54:46;3.13;;;2.08;;
70126;SDS011;57491;42.694;23.314;2023-11-18T13:57:19;3.35;;;2.05;;
70126;SDS011;57491;42.694;23.314;2023-11-18T13:59:48;2.80;;;2.03;;
70126;SDS011;57491;42.694;23.314;2023-11-18T14:02:16;2.38;;;2.03;;
70126;SDS011;57491;42.694;23.314;2023-11-18T14:04:45;2.65;;;1.92;;
70126;SDS011;57491;42.694;23.314;2023-11-18T14:07:14;2.83;;;2.55;;
70126;SDS011;57491;42.694;23.314;2023-11-18T14:09:44;3.28;;;2.45;;
70126;SDS011;57491;42.694;23.314;2023-11-18T14:12:12;2.53;;;2.33;;
70126;SDS011;57491;42.694;23.314;2023-11-18T14:14:41;3.40;;;2.60;;
70126;SDS011;57491;42.694;23.314;2023-11-18T14:17:09;3.58;;;2.97;;
70126;SDS011;57491;42.694;23.314;2023-11-18T14:19:36;2.67;;;2.47;;
70126;SDS011;57491;42.694;23.314;2023-11-18T14:22:04;3.92;;;2.72;;
70126;SDS011;57491;42.694;23.314;2023-11-18T14:26:59;5.05;;;2.55;;
70126;SDS011;57491;42.694;23.314;2023-11-18T14:29:26;3.97;;;2.60;;
70126;SDS011;57491;42.694;23.314;2023-11-18T14:31:55;3.00;;;2.40;;
70126;SDS011;57491;42.694;23.314;2023-11-18T14:34:22;2.97;;;1.95;;
70126;SDS011;57491;42.694;23.314;2023-11-18T14:39:18;2.63;;;2.42;;
70126;SDS011;57491;42.694;23.314;2023-11-18T14:41:47;3.40;;;2.60;;
70126;SDS011;57491;42.694;23.314;2023-11-18T14:44:15;2.28;;;2.08;;
70126;SDS011;57491;42.694;23.314;2023-11-18T14:46:43;3.78;;;2.80;;
70126;SDS011;57491;42.694;23.314;2023-11-18T14:49:12;2.35;;;2.15;;
70126;SDS011;57491;42.694;23.314;2023-11-18T14:51:40;3.05;;;2.30;;
70126;SDS011;57491;42.694;23.314;2023-11-18T14:54:08;3.42;;;2.65;;
70126;SDS011;57491;42.694;23.314;2023-11-18T14:56:36;3.05;;;2.63;;
70126;SDS011;57491;42.694;23.314;2023-11-18T14:59:04;3.90;;;2.20;;
70126;SDS011;57491;42.694;23.314;2023-11-18T15:01:33;3.80;;;2.50;;
70126;SDS011;57491;42.694;23.314;2023-11-18T15:04:00;3.47;;;2.60;;
70126;SDS011;57491;42.694;23.314;2023-11-18T15:06:32;3.97;;;3.08;;
70126;SDS011;57491;42.694;23.314;2023-11-18T15:09:00;6.13;;;3.17;;
70126;SDS011;57491;42.694;23.314;2023-11-18T15:11:29;5.30;;;3.38;;
70126;SDS011;57491;42.694;23.314;2023-11-18T15:13:59;6.85;;;2.97;;
70126;SDS011;57491;42.694;23.314;2023-11-18T15:16:26;5.38;;;3.08;;
70126;SDS011;57491;42.694;23.314;2023-11-18T15:18:54;3.87;;;3.00;;
70126;SDS011;57491;42.694;23.314;2023-11-18T15:21:22;4.20;;;3.35;;
70126;SDS011;57491;42.694;23.314;2023-11-18T15:23:50;3.70;;;3.00;;
70126;SDS011;57491;42.694;23.314;2023-11-18T15:26:18;3.80;;;2.90;;
70126;SDS011;57491;42.694;23.314;2023-11-18T15:28:45;3.70;;;2.70;;
70126;SDS011;57491;42.694;23.314;2023-11-18T15:31:13;4.05;;;2.53;;
70126;SDS011;57491;42.694;23.314;2023-11-18T15:33:40;2.67;;;2.13;;